createdAt,value
2023-03-06T00:00:20.975Z,7.13
2023-03-06T00:02:47.980Z,6.90
2023-03-06T00:05:15.696Z,6.75
2023-03-06T00:07:42.942Z,6.30
2023-03-06T00:10:12.636Z,6.80
2023-03-06T00:12:41.004Z,6.72
2023-03-06T00:15:08.290Z,7.20
2023-03-06T00:17:35.746Z,6.60
2023-03-06T00:20:03.421Z,6.65
2023-03-06T00:22:30.408Z,7.88
2023-03-06T00:24:57.664Z,7.60
2023-03-06T00:27:26.396Z,7.60
2023-03-06T00:29:58.411Z,7.85
2023-03-06T00:32:26.142Z,6.95
2023-03-06T00:34:53.649Z,7.65
2023-03-06T00:37:21.060Z,8.32
2023-03-06T00:39:49.621Z,8.13
2023-03-06T00:42:16.758Z,7.85
2023-03-06T00:44:44.356Z,7.68
2023-03-06T00:47:12.846Z,8.05
2023-03-06T00:49:39.834Z,8.32
2023-03-06T00:52:06.879Z,7.23
2023-03-06T00:54:33.876Z,7.22
2023-03-06T00:57:00.866Z,6.80
2023-03-06T00:59:28.028Z,6.90
2023-03-06T01:01:55.077Z,7.25
2023-03-06T01:04:23.894Z,7.18
2023-03-06T01:06:50.963Z,7.55
2023-03-06T01:09:17.870Z,7.07
2023-03-06T01:11:44.794Z,7.57
2023-03-06T01:14:11.729Z,7.05
2023-03-06T01:16:38.684Z,7.05
2023-03-06T01:19:05.934Z,8.20
2023-03-06T01:21:34.366Z,7.18
2023-03-06T01:24:01.290Z,8.07
2023-03-06T01:26:28.269Z,6.75
2023-03-06T01:28:58.242Z,6.20
2023-03-06T01:31:26.069Z,6.63
2023-03-06T01:33:53.161Z,7.82
2023-03-06T01:36:20.153Z,6.45
2023-03-06T01:38:48.558Z,7.30
2023-03-06T01:41:16.338Z,7.33
2023-03-06T01:43:44.331Z,7.45
2023-03-06T01:46:29.061Z,7.53
2023-03-06T01:48:57.930Z,7.65
2023-03-06T01:51:27.435Z,8.60
2023-03-06T01:53:56.473Z,7.73
2023-03-06T01:56:24.257Z,7.85
2023-03-06T01:58:51.826Z,7.30
2023-03-06T02:01:19.256Z,7.43
2023-03-06T02:03:47.529Z,6.90
2023-03-06T02:06:19.758Z,11.75
2023-03-06T02:08:47.301Z,13.38
2023-03-06T02:11:17.066Z,11.40
2023-03-06T02:13:44.700Z,10.95
2023-03-06T02:16:12.403Z,9.18
2023-03-06T02:18:41.132Z,7.95
2023-03-06T02:21:09.094Z,7.47
2023-03-06T02:23:39.039Z,6.38
2023-03-06T02:26:07.977Z,6.03
2023-03-06T02:28:35.668Z,6.07
2023-03-06T02:31:02.721Z,7.23
2023-03-06T02:33:30.129Z,7.93
2023-03-06T02:35:58.967Z,7.68
2023-03-06T02:38:29.376Z,8.30
2023-03-06T02:40:58.181Z,7.25
2023-03-06T02:43:28.847Z,7.13
2023-03-06T02:45:55.897Z,7.43
2023-03-06T02:48:23.295Z,7.85
2023-03-06T02:50:50.365Z,8.07
2023-03-06T02:53:18.332Z,6.82
2023-03-06T02:55:45.271Z,7.63
2023-03-06T02:58:12.293Z,7.88
2023-03-06T03:00:40.661Z,7.25
2023-03-06T03:03:07.710Z,7.63
2023-03-06T03:05:34.729Z,7.88
2023-03-06T03:08:01.614Z,7.85
2023-03-06T03:10:28.866Z,7.75
2023-03-06T03:12:55.820Z,7.68
2023-03-06T03:15:22.729Z,6.70
2023-03-06T03:17:51.096Z,7.53
2023-03-06T03:20:18.998Z,7.00
2023-03-06T03:22:47.516Z,7.18
2023-03-06T03:25:14.626Z,7.68
2023-03-06T03:27:41.524Z,6.72
2023-03-06T03:30:09.303Z,6.50
2023-03-06T03:32:36.455Z,7.73
2023-03-06T03:35:05.307Z,8.25
2023-03-06T03:37:32.225Z,7.78
2023-03-06T03:39:59.458Z,8.43
2023-03-06T03:42:26.403Z,8.53
2023-03-06T03:44:53.295Z,7.83
2023-03-06T03:47:20.244Z,7.45
2023-03-06T03:49:47.197Z,7.72
2023-03-06T03:52:16.807Z,6.85
2023-03-06T03:54:43.755Z,6.82
2023-03-06T03:57:10.692Z,7.95
2023-03-06T03:59:37.720Z,8.65
2023-03-06T04:02:05.189Z,10.13
2023-03-06T04:04:32.682Z,10.10
2023-03-06T04:07:00.567Z,11.05
2023-03-06T04:09:28.921Z,12.17
2023-03-06T04:11:56.133Z,11.13
2023-03-06T04:14:23.280Z,10.93
2023-03-06T04:16:50.384Z,9.93
2023-03-06T04:19:17.369Z,10.05
2023-03-06T04:21:44.312Z,8.87
2023-03-06T04:24:11.429Z,9.10
2023-03-06T04:26:39.808Z,8.27
2023-03-06T04:29:06.962Z,8.68
2023-03-06T04:31:33.998Z,8.65
2023-03-06T04:34:01.340Z,7.25
2023-03-06T04:36:29.154Z,7.32
2023-03-06T04:38:56.635Z,7.50
2023-03-06T04:41:23.726Z,6.88
2023-03-06T04:43:52.629Z,7.38
2023-03-06T04:46:19.726Z,6.53
2023-03-06T04:48:46.797Z,6.63
2023-03-06T04:51:13.935Z,7.68
2023-03-06T04:53:40.934Z,7.40
2023-03-06T04:56:08.109Z,7.25
2023-03-06T04:58:35.095Z,6.95
2023-03-06T05:01:03.701Z,7.47
2023-03-06T05:03:30.752Z,7.68
2023-03-06T05:05:57.855Z,7.50
2023-03-06T05:08:25.273Z,7.63
2023-03-06T05:10:54.150Z,6.72
2023-03-06T05:13:21.024Z,7.60
2023-03-06T05:15:47.953Z,7.38
2023-03-06T05:18:17.026Z,6.20
2023-03-06T05:20:44.265Z,6.25
2023-03-06T05:23:11.439Z,6.50
2023-03-06T05:25:38.544Z,6.50
2023-03-06T05:28:05.479Z,7.35
2023-03-06T05:30:32.989Z,7.10
2023-03-06T05:33:00.115Z,7.68
2023-03-06T05:35:28.647Z,7.47
2023-03-06T05:37:55.880Z,8.63
2023-03-06T05:40:22.832Z,8.80
2023-03-06T05:42:49.707Z,10.90
2023-03-06T05:45:16.700Z,10.50
2023-03-06T05:47:43.878Z,10.55
2023-03-06T05:50:11.708Z,9.10
2023-03-06T05:52:40.208Z,9.50
2023-03-06T05:55:07.904Z,9.80
2023-03-06T05:57:34.870Z,10.55
2023-03-06T06:00:01.866Z,10.27
2023-03-06T06:02:30.958Z,8.20
2023-03-06T06:04:57.925Z,6.75
2023-03-06T06:07:27.561Z,8.23
2023-03-06T06:09:56.536Z,9.20
2023-03-06T06:12:23.627Z,7.85
2023-03-06T06:14:50.616Z,7.70
2023-03-06T06:17:17.769Z,7.45
2023-03-06T06:19:45.175Z,7.72
2023-03-06T06:22:12.468Z,7.30
2023-03-06T06:24:39.507Z,7.82
2023-03-06T06:27:08.230Z,7.72
2023-03-06T06:29:35.583Z,6.65
2023-03-06T06:32:02.731Z,6.85
2023-03-06T06:34:30.692Z,7.00
2023-03-06T06:36:57.846Z,8.13
2023-03-06T06:39:25.278Z,7.03
2023-03-06T06:42:05.959Z,6.20
2023-03-06T06:44:45.550Z,6.55
2023-03-06T06:47:24.084Z,6.38
2023-03-06T06:49:52.955Z,6.68
2023-03-06T06:52:20.121Z,8.00
2023-03-06T06:54:47.131Z,9.93
2023-03-06T06:57:15.813Z,12.48
2023-03-06T06:59:43.017Z,11.13
2023-03-06T07:02:12.155Z,11.03
2023-03-06T07:04:44.290Z,10.18
2023-03-06T07:07:16.174Z,8.45
2023-03-06T07:09:43.264Z,10.00
2023-03-06T07:12:10.327Z,9.68
2023-03-06T07:14:37.428Z,7.97
2023-03-06T07:17:04.392Z,7.30
2023-03-06T07:19:35.016Z,9.25
2023-03-06T07:22:01.922Z,6.20
2023-03-06T07:24:31.809Z,6.75
2023-03-06T07:26:58.717Z,6.33
2023-03-06T07:29:35.040Z,6.88
2023-03-06T07:32:05.239Z,6.55
2023-03-06T07:34:33.608Z,6.97
2023-03-06T07:37:00.996Z,6.50
2023-03-06T07:39:30.446Z,5.93
2023-03-06T07:41:58.774Z,6.70
2023-03-06T07:44:25.770Z,7.57
2023-03-06T07:46:52.807Z,5.85
2023-03-06T07:49:19.711Z,5.68
2023-03-06T07:51:48.147Z,5.97
2023-03-06T07:54:15.113Z,7.18
2023-03-06T07:56:42.091Z,5.85
2023-03-06T07:59:10.898Z,6.10
2023-03-06T08:01:39.580Z,6.03
2023-03-06T08:04:06.808Z,6.23
2023-03-06T08:06:33.891Z,5.20
2023-03-06T08:09:05.430Z,5.28
2023-03-06T08:11:33.399Z,5.60
2023-03-06T08:14:00.815Z,6.13
2023-03-06T08:16:29.193Z,5.67
2023-03-06T08:18:56.893Z,5.90
2023-03-06T08:21:24.713Z,5.63
2023-03-06T08:23:51.735Z,5.97
2023-03-06T08:26:21.056Z,6.15
2023-03-06T08:28:48.049Z,5.50
2023-03-06T08:31:21.470Z,5.30
2023-03-06T08:33:48.775Z,5.85
2023-03-06T08:36:15.683Z,5.45
2023-03-06T08:38:42.658Z,5.82
2023-03-06T08:41:09.991Z,6.00
2023-03-06T08:43:38.754Z,6.38
2023-03-06T08:46:06.147Z,5.90
2023-03-06T08:48:33.181Z,5.93
2023-03-06T08:51:00.109Z,5.60
2023-03-06T08:53:41.723Z,5.73
2023-03-06T08:56:15.318Z,5.65
2023-03-06T08:58:44.107Z,5.70
2023-03-06T09:01:14.963Z,6.10
2023-03-06T09:03:42.154Z,5.78
2023-03-06T09:06:09.161Z,5.90
2023-03-06T09:08:36.254Z,6.10
2023-03-06T09:11:03.361Z,6.78
2023-03-06T09:13:30.339Z,6.68
2023-03-06T09:15:58.776Z,7.05
2023-03-06T09:18:25.982Z,6.43
2023-03-06T09:20:52.990Z,7.07
2023-03-06T09:23:20.509Z,6.50
2023-03-06T09:25:51.676Z,7.07
2023-03-06T09:28:18.856Z,7.07
2023-03-06T09:30:45.886Z,7.30
2023-03-06T09:33:14.867Z,6.38
2023-03-06T09:35:51.157Z,5.93
2023-03-06T09:38:18.221Z,6.45
2023-03-06T09:40:50.717Z,6.35
2023-03-06T09:43:20.790Z,7.30
2023-03-06T09:45:48.161Z,6.35
2023-03-06T09:48:16.936Z,6.35
2023-03-06T09:50:45.844Z,5.57
2023-03-06T09:53:22.176Z,6.07
2023-03-06T09:55:56.907Z,6.67
2023-03-06T09:58:25.234Z,6.53
2023-03-06T10:00:57.553Z,6.28
2023-03-06T10:03:28.274Z,6.32
2023-03-06T10:05:57.258Z,6.55
2023-03-06T10:08:26.369Z,6.20
2023-03-06T10:10:57.832Z,6.78
2023-03-06T10:13:26.992Z,6.45
2023-03-06T10:15:55.120Z,7.53
2023-03-06T10:18:22.041Z,6.97
2023-03-06T10:20:54.687Z,6.23
2023-03-06T10:23:27.101Z,6.95
2023-03-06T10:25:59.452Z,7.32
2023-03-06T10:28:29.091Z,7.13
2023-03-06T10:31:00.339Z,6.35
2023-03-06T10:33:34.513Z,7.47
2023-03-06T10:36:03.288Z,6.38
2023-03-06T10:38:37.547Z,6.30
2023-03-06T10:41:07.385Z,6.53
2023-03-06T10:43:36.374Z,6.30
2023-03-06T10:46:05.233Z,6.03
2023-03-06T10:48:36.105Z,6.10
2023-03-06T10:51:18.534Z,6.25
2023-03-06T10:53:51.262Z,6.28
2023-03-06T10:56:26.753Z,7.35
2023-03-06T10:59:05.425Z,6.90
2023-03-06T11:01:34.916Z,6.97
2023-03-06T11:04:15.529Z,7.30
2023-03-06T11:06:44.165Z,6.68
2023-03-06T11:09:15.234Z,6.95
2023-03-06T11:11:42.339Z,6.37
2023-03-06T11:14:14.088Z,7.57
2023-03-06T11:16:41.168Z,7.45
2023-03-06T11:19:19.255Z,7.60
2023-03-06T11:21:59.668Z,6.80
2023-03-06T11:24:35.451Z,7.40
2023-03-06T11:27:06.142Z,7.03
2023-03-06T11:29:40.770Z,7.28
2023-03-06T11:32:16.546Z,7.95
2023-03-06T11:34:50.298Z,7.15
2023-03-06T11:37:38.928Z,8.10
2023-03-06T11:40:17.797Z,7.72
2023-03-06T11:42:50.604Z,8.13
2023-03-06T11:45:21.727Z,8.05
2023-03-06T11:48:01.889Z,8.60
2023-03-06T11:50:36.001Z,8.60
2023-03-06T11:53:07.990Z,8.15
2023-03-06T11:55:47.687Z,8.23
2023-03-06T11:58:33.202Z,7.43
2023-03-06T12:01:03.630Z,6.90
2023-03-06T12:03:44.277Z,7.93
2023-03-06T12:06:37.338Z,7.93
2023-03-06T12:09:17.512Z,8.70
2023-03-06T12:11:46.838Z,7.85
2023-03-06T12:14:35.841Z,8.38
2023-03-06T12:17:11.691Z,9.17
2023-03-06T12:19:52.321Z,9.48
2023-03-06T12:22:29.615Z,12.15
2023-03-06T12:25:20.629Z,9.48
2023-03-06T12:27:50.565Z,9.70
2023-03-06T12:30:41.417Z,8.63
2023-03-06T12:33:15.802Z,8.35
2023-03-06T12:35:57.063Z,8.98
2023-03-06T12:38:32.773Z,11.90
2023-03-06T12:41:08.148Z,11.07
2023-03-06T12:43:49.953Z,12.47
2023-03-06T12:46:17.761Z,13.02
2023-03-06T12:48:47.153Z,11.77
2023-03-06T12:51:18.196Z,9.93
2023-03-06T12:53:45.393Z,8.77
2023-03-06T12:56:16.072Z,9.10
2023-03-06T12:58:49.994Z,10.30
2023-03-06T13:01:27.968Z,11.68
2023-03-06T13:08:00.315Z,17.50
2023-03-06T13:10:27.949Z,14.70
2023-03-06T13:12:56.874Z,29.77
2023-03-06T13:15:35.317Z,39.65
2023-03-06T13:18:05.819Z,18.30
2023-03-06T13:20:35.356Z,11.00
2023-03-06T13:23:21.132Z,11.03
2023-03-06T13:25:49.078Z,9.93
2023-03-06T13:28:29.476Z,8.85
2023-03-06T13:30:57.989Z,9.35
2023-03-06T13:33:43.818Z,15.60
2023-03-06T13:36:28.854Z,21.67
2023-03-06T13:38:59.660Z,14.27
2023-03-06T13:41:34.151Z,13.98
2023-03-06T13:44:06.288Z,14.32
2023-03-06T13:46:35.553Z,14.38
2023-03-06T13:49:03.844Z,16.03
2023-03-06T13:51:33.599Z,12.27
2023-03-06T13:54:15.497Z,11.98
2023-03-06T13:56:59.833Z,11.85
2023-03-06T13:59:49.008Z,9.68
2023-03-06T14:02:24.159Z,12.80
2023-03-06T14:04:54.374Z,10.38
2023-03-06T14:07:25.748Z,12.18
2023-03-06T14:10:00.100Z,11.52
2023-03-06T14:12:30.408Z,11.63
2023-03-06T14:14:59.533Z,12.43
2023-03-06T14:17:28.746Z,16.10
2023-03-06T14:19:58.223Z,13.35
2023-03-06T14:22:25.315Z,10.23
2023-03-06T14:24:54.014Z,10.30
2023-03-06T14:27:21.431Z,10.80
2023-03-06T14:29:49.918Z,11.50
2023-03-06T14:32:21.564Z,10.82
2023-03-06T14:34:48.632Z,11.15
2023-03-06T14:37:20.027Z,10.93
2023-03-06T14:39:47.084Z,16.00
2023-03-06T14:42:16.755Z,16.60
2023-03-06T14:44:43.785Z,12.50
2023-03-06T14:47:31.616Z,12.00
2023-03-06T14:50:18.376Z,14.32
2023-03-06T14:52:47.354Z,12.50
2023-03-06T14:55:19.832Z,14.80
2023-03-06T14:57:48.130Z,12.23
2023-03-06T15:00:17.518Z,10.73
2023-03-06T15:02:49.575Z,8.88
2023-03-06T15:05:20.586Z,10.70
2023-03-06T15:07:49.605Z,10.65
2023-03-06T15:10:26.588Z,10.20
2023-03-06T15:12:53.688Z,17.98
2023-03-06T15:15:25.297Z,12.00
2023-03-06T15:17:52.346Z,12.47
2023-03-06T15:20:38.185Z,11.45
2023-03-06T15:23:15.567Z,14.32
2023-03-06T15:25:49.540Z,15.10
2023-03-06T15:28:30.449Z,13.93
2023-03-06T15:31:18.379Z,15.57
2023-03-06T15:33:59.434Z,13.65
2023-03-06T15:36:29.714Z,12.10
2023-03-06T15:39:24.423Z,12.95
2023-03-06T15:41:56.088Z,12.38
2023-03-06T15:44:23.255Z,12.37
2023-03-06T15:46:56.256Z,11.55
2023-03-06T15:49:26.502Z,11.93
2023-03-06T15:51:53.432Z,12.85
2023-03-06T15:54:20.604Z,12.90
2023-03-06T15:56:48.683Z,14.50
2023-03-06T15:59:21.097Z,15.50
2023-03-06T16:01:48.445Z,17.98
2023-03-06T16:04:17.229Z,18.52
2023-03-06T16:06:47.275Z,20.13
2023-03-06T16:09:14.665Z,18.47
2023-03-06T16:11:45.754Z,19.10
2023-03-06T16:14:18.828Z,16.77
2023-03-06T16:16:47.809Z,17.13
2023-03-06T16:19:25.357Z,23.88
2023-03-06T16:21:53.143Z,16.40
2023-03-06T16:24:20.094Z,15.82
2023-03-06T16:26:48.582Z,19.48
2023-03-06T16:29:16.298Z,26.05
2023-03-06T16:31:43.433Z,23.02
2023-03-06T16:34:11.888Z,22.13
2023-03-06T16:36:39.075Z,22.13
2023-03-06T16:39:06.749Z,21.20
2023-03-06T16:41:33.697Z,18.23
2023-03-06T16:44:00.822Z,17.55
2023-03-06T16:46:28.064Z,16.40
2023-03-06T16:51:51.298Z,15.73
2023-03-06T16:54:18.835Z,16.13
2023-03-06T16:56:50.406Z,17.98
2023-03-06T16:59:17.552Z,22.87
2023-03-06T17:01:44.620Z,22.63
2023-03-06T17:04:12.021Z,24.15
2023-03-06T17:06:39.199Z,24.02
2023-03-06T17:09:07.869Z,23.60
2023-03-06T17:11:36.574Z,30.23
2023-03-06T17:14:03.553Z,34.50
2023-03-06T17:16:30.477Z,33.60
2023-03-06T17:18:58.325Z,30.25
2023-03-06T17:21:27.047Z,24.75
2023-03-06T17:23:53.992Z,22.53
2023-03-06T17:26:22.831Z,21.27
2023-03-06T17:28:49.827Z,18.45
2023-03-06T17:31:18.009Z,17.67
2023-03-06T17:33:45.627Z,27.48
2023-03-06T17:36:14.432Z,33.77
2023-03-06T17:38:41.713Z,23.58
2023-03-06T17:41:09.587Z,20.95
2023-03-06T17:43:41.410Z,23.65
2023-03-06T17:46:09.220Z,19.80
2023-03-06T17:48:37.076Z,18.67
2023-03-06T17:51:04.521Z,18.58
2023-03-06T17:53:32.120Z,18.60
2023-03-06T17:56:02.582Z,17.85
2023-03-06T17:58:29.838Z,17.27
2023-03-06T18:00:58.331Z,15.20
2023-03-06T18:03:26.246Z,15.15
2023-03-06T18:05:58.930Z,15.45
2023-03-06T18:08:26.211Z,14.38
2023-03-06T18:10:58.419Z,13.57
2023-03-06T18:13:25.648Z,13.67
2023-03-06T18:15:52.905Z,14.63
2023-03-06T18:18:21.385Z,14.85
2023-03-06T18:20:48.446Z,15.55
2023-03-06T18:23:15.828Z,16.80
2023-03-06T18:25:42.789Z,33.33
2023-03-06T18:28:10.041Z,21.35
2023-03-06T18:30:37.609Z,20.48
2023-03-06T18:33:05.197Z,31.13
2023-03-06T18:35:35.079Z,34.13
2023-03-06T18:38:02.993Z,28.53
2023-03-06T18:40:30.464Z,28.92
2023-03-06T18:42:57.412Z,29.20
2023-03-06T18:45:24.669Z,35.75
2023-03-06T18:47:51.709Z,33.92
2023-03-06T18:50:19.104Z,29.33
2023-03-06T18:52:47.920Z,25.02
2023-03-06T18:55:14.840Z,10.07
2023-03-06T18:57:41.913Z,10.18
2023-03-06T19:00:09.762Z,10.13
2023-03-06T19:02:37.176Z,10.73
2023-03-06T19:05:06.327Z,11.55
2023-03-06T19:07:33.692Z,12.52
2023-03-06T19:10:02.458Z,12.10
2023-03-06T19:12:29.831Z,14.00
2023-03-06T19:14:58.243Z,16.43
2023-03-06T19:17:25.571Z,15.65
2023-03-06T19:19:52.585Z,14.57
2023-03-06T19:22:19.726Z,14.63
2023-03-06T19:24:48.265Z,15.50
2023-03-06T19:27:16.985Z,14.37
2023-03-06T19:29:44.276Z,14.38
2023-03-06T19:32:11.334Z,11.63
2023-03-06T19:34:38.580Z,10.88
2023-03-06T19:37:06.097Z,11.85
2023-03-06T19:39:33.128Z,11.83
2023-03-06T19:42:01.184Z,10.95
2023-03-06T19:44:30.287Z,10.93
2023-03-06T19:46:57.490Z,11.70
2023-03-06T19:49:24.477Z,11.03
2023-03-06T19:51:52.684Z,11.52
2023-03-06T19:54:24.162Z,12.15
2023-03-06T19:56:51.436Z,16.15
2023-03-06T19:59:18.929Z,19.15
2023-03-06T20:01:47.680Z,17.98
2023-03-06T20:04:16.965Z,16.00
2023-03-06T20:06:46.748Z,15.20
2023-03-06T20:09:14.215Z,14.88
2023-03-06T20:11:41.841Z,15.10
2023-03-06T20:14:10.877Z,15.90
2023-03-06T20:16:38.770Z,15.93
2023-03-06T20:19:08.969Z,16.17
2023-03-06T20:21:37.878Z,14.23
2023-03-06T20:24:05.704Z,13.00
2023-03-06T20:26:34.893Z,12.82
2023-03-06T20:29:02.111Z,13.40
2023-03-06T20:31:30.450Z,14.23
2023-03-06T20:33:58.530Z,13.98
2023-03-06T20:36:28.983Z,12.88
2023-03-06T20:38:56.148Z,13.55
2023-03-06T20:41:25.005Z,13.95
2023-03-06T20:43:52.383Z,13.68
2023-03-06T20:46:20.120Z,12.93
2023-03-06T20:48:48.960Z,14.32
2023-03-06T20:51:17.368Z,15.15
2023-03-06T20:53:46.168Z,14.93
2023-03-06T20:56:15.257Z,14.85
2023-03-06T20:58:42.274Z,14.00
2023-03-06T21:01:09.451Z,13.00
2023-03-06T21:03:36.773Z,13.75
2023-03-06T21:06:03.981Z,14.25
2023-03-06T21:08:31.441Z,12.43
2023-03-06T21:11:00.395Z,11.90
2023-03-06T21:13:27.940Z,12.82
2023-03-06T21:15:54.909Z,14.43
2023-03-06T21:18:22.408Z,14.10
2023-03-06T21:20:49.450Z,12.95
2023-03-06T21:23:16.962Z,14.00
2023-03-06T21:25:47.148Z,12.70
2023-03-06T21:28:15.870Z,12.18
2023-03-06T21:30:43.533Z,13.43
2023-03-06T21:33:10.758Z,12.40
2023-03-06T21:35:37.878Z,12.85
2023-03-06T21:42:02.413Z,12.27
2023-03-06T21:44:30.808Z,11.57
2023-03-06T21:46:57.751Z,11.48
2023-03-06T21:49:26.233Z,11.18
2023-03-06T21:51:53.468Z,12.65
2023-03-06T21:54:20.498Z,12.10
2023-03-06T21:56:47.686Z,11.17
2023-03-06T21:59:14.709Z,12.25
2023-03-06T22:01:43.167Z,12.85
2023-03-06T22:04:10.415Z,17.55
2023-03-06T22:06:38.276Z,17.40
2023-03-06T22:09:05.379Z,15.17
2023-03-06T22:11:36.985Z,15.73
2023-03-06T22:14:04.372Z,16.63
2023-03-06T22:16:31.608Z,15.10
2023-03-06T22:19:00.134Z,15.65
2023-03-06T22:21:27.472Z,15.60
2023-03-06T22:23:57.358Z,16.08
2023-03-06T22:26:24.790Z,15.00
2023-03-06T22:28:51.840Z,13.80
2023-03-06T22:31:19.961Z,14.23
2023-03-06T22:33:47.363Z,13.93
2023-03-06T22:36:15.838Z,13.82
2023-03-06T22:38:44.363Z,14.23
2023-03-06T22:41:12.234Z,15.80
2023-03-06T22:43:39.357Z,16.23
2023-03-06T22:46:07.642Z,19.20
2023-03-06T22:48:34.727Z,15.68
2023-03-06T22:51:02.748Z,14.65
2023-03-06T22:53:31.125Z,15.57
2023-03-06T22:55:59.056Z,16.20
2023-03-06T22:58:26.263Z,17.57
2023-03-06T23:00:53.277Z,16.27
2023-03-06T23:03:20.208Z,15.55
2023-03-06T23:05:47.136Z,14.82
2023-03-06T23:08:14.217Z,16.52
2023-03-06T23:10:42.843Z,15.18
2023-03-06T23:13:10.117Z,16.27
2023-03-06T23:15:37.594Z,15.95
2023-03-06T23:18:04.864Z,15.82
2023-03-06T23:20:32.264Z,14.18
2023-03-06T23:22:59.195Z,14.87
2023-03-06T23:25:26.248Z,14.15
2023-03-06T23:27:55.836Z,14.70
2023-03-06T23:30:23.375Z,17.85
2023-03-06T23:32:50.536Z,13.52
2023-03-06T23:35:18.022Z,13.67
2023-03-06T23:37:44.974Z,13.73
2023-03-06T23:40:13.797Z,13.60
2023-03-06T23:42:40.861Z,12.80
2023-03-06T23:45:10.148Z,13.07
2023-03-06T23:47:37.151Z,12.77
2023-03-06T23:50:04.496Z,11.93
2023-03-06T23:52:31.554Z,12.65
2023-03-06T23:54:58.472Z,11.90
2023-03-06T23:57:25.443Z,11.20
2023-03-06T23:59:52.498Z,11.93
